Bay City, Wisconsin
Current Conditions -  °F | °C
As of 2:31 PM on Wednesday 26 Nov 2014 (Local Time) from KRGK Reporting Station
Light Snow Light Snow  
Wind Chill: 27°   Ceiling: NA
Heat Index: 27°   Visibility: 2mi
Dew Point: 21°   Wind: 3mph
Humidity: 80%   Direction: 360°N
Pressure: 30.19"   Gusts: NA
Location:  44.59°N, 92.45°W
Report Text: KRGK 262031Z AUTO 36003KT 2SM -SN M03/M06 A3019 RMK AO2
Loading
Personal Weather Stations






























Interactive Weather Map New forecast layout! Learn more

10-Day Weather Forecast

Advertisements
Track Severe Weather on mobile